sensor_id;sensor_type;location;lat;lon;timestamp;P1;durP1;ratioP1;P2;durP2;ratioP2
11422;SDS011;5768;51.476;7.210;2023-08-31T00:01:20;5.47;;;3.00;;
11422;SDS011;5768;51.476;7.210;2023-08-31T00:06:22;4.75;;;2.88;;
11422;SDS011;5768;51.476;7.210;2023-08-31T00:11:25;4.50;;;3.10;;
11422;SDS011;5768;51.476;7.210;2023-08-31T00:16:28;5.93;;;3.60;;
11422;SDS011;5768;51.476;7.210;2023-08-31T00:21:31;4.47;;;2.92;;
11422;SDS011;5768;51.476;7.210;2023-08-31T00:26:33;4.25;;;2.97;;
11422;SDS011;5768;51.476;7.210;2023-08-31T00:31:42;8.18;;;3.33;;
11422;SDS011;5768;51.476;7.210;2023-08-31T00:36:45;6.88;;;3.30;;
11422;SDS011;5768;51.476;7.210;2023-08-31T00:41:47;8.05;;;2.97;;
11422;SDS011;5768;51.476;7.210;2023-08-31T00:46:51;4.00;;;2.72;;
11422;SDS011;5768;51.476;7.210;2023-08-31T00:51:55;6.03;;;2.88;;
11422;SDS011;5768;51.476;7.210;2023-08-31T00:56:57;6.95;;;3.40;;
11422;SDS011;5768;51.476;7.210;2023-08-31T01:02:02;6.20;;;3.22;;
11422;SDS011;5768;51.476;7.210;2023-08-31T01:07:19;6.97;;;2.95;;
11422;SDS011;5768;51.476;7.210;2023-08-31T01:12:34;5.55;;;3.20;;
11422;SDS011;5768;51.476;7.210;2023-08-31T01:17:47;7.30;;;3.70;;
11422;SDS011;5768;51.476;7.210;2023-08-31T01:22:55;8.70;;;3.30;;
11422;SDS011;5768;51.476;7.210;2023-08-31T01:28:06;5.07;;;3.60;;
11422;SDS011;5768;51.476;7.210;2023-08-31T01:33:09;5.35;;;3.55;;
11422;SDS011;5768;51.476;7.210;2023-08-31T01:38:12;5.05;;;3.38;;
11422;SDS011;5768;51.476;7.210;2023-08-31T01:43:23;3.95;;;3.20;;
11422;SDS011;5768;51.476;7.210;2023-08-31T01:48:26;5.88;;;3.80;;
11422;SDS011;5768;51.476;7.210;2023-08-31T01:53:29;4.35;;;3.38;;
11422;SDS011;5768;51.476;7.210;2023-08-31T01:58:32;4.28;;;3.00;;
11422;SDS011;5768;51.476;7.210;2023-08-31T02:03:34;4.97;;;3.65;;
11422;SDS011;5768;51.476;7.210;2023-08-31T02:08:37;6.72;;;4.60;;
11422;SDS011;5768;51.476;7.210;2023-08-31T02:13:41;5.30;;;4.13;;
11422;SDS011;5768;51.476;7.210;2023-08-31T02:18:43;4.72;;;3.55;;
11422;SDS011;5768;51.476;7.210;2023-08-31T02:23:45;4.20;;;3.55;;
11422;SDS011;5768;51.476;7.210;2023-08-31T02:28:49;6.93;;;3.95;;
11422;SDS011;5768;51.476;7.210;2023-08-31T02:33:51;4.60;;;3.10;;
11422;SDS011;5768;51.476;7.210;2023-08-31T02:38:54;5.43;;;4.05;;
11422;SDS011;5768;51.476;7.210;2023-08-31T02:43:58;4.63;;;4.05;;
11422;SDS011;5768;51.476;7.210;2023-08-31T02:49:00;4.45;;;3.70;;
11422;SDS011;5768;51.476;7.210;2023-08-31T02:54:03;9.05;;;5.00;;
11422;SDS011;5768;51.476;7.210;2023-08-31T02:59:06;6.93;;;4.22;;
11422;SDS011;5768;51.476;7.210;2023-08-31T03:04:09;9.43;;;5.50;;
11422;SDS011;5768;51.476;7.210;2023-08-31T03:09:11;7.72;;;4.80;;
11422;SDS011;5768;51.476;7.210;2023-08-31T03:14:15;6.85;;;4.20;;
11422;SDS011;5768;51.476;7.210;2023-08-31T03:19:18;6.47;;;4.50;;
11422;SDS011;5768;51.476;7.210;2023-08-31T03:24:20;5.20;;;4.20;;
11422;SDS011;5768;51.476;7.210;2023-08-31T03:29:24;7.10;;;4.57;;
11422;SDS011;5768;51.476;7.210;2023-08-31T03:34:29;6.10;;;5.13;;
11422;SDS011;5768;51.476;7.210;2023-08-31T03:39:31;7.00;;;5.63;;
11422;SDS011;5768;51.476;7.210;2023-08-31T03:44:35;6.45;;;5.60;;
11422;SDS011;5768;51.476;7.210;2023-08-31T03:49:38;8.70;;;6.78;;
11422;SDS011;5768;51.476;7.210;2023-08-31T03:54:40;8.60;;;6.88;;
11422;SDS011;5768;51.476;7.210;2023-08-31T03:59:44;9.13;;;7.60;;
11422;SDS011;5768;51.476;7.210;2023-08-31T04:04:46;10.25;;;8.07;;
11422;SDS011;5768;51.476;7.210;2023-08-31T04:09:48;10.25;;;8.82;;
11422;SDS011;5768;51.476;7.210;2023-08-31T04:14:52;10.82;;;7.97;;
11422;SDS011;5768;51.476;7.210;2023-08-31T04:19:55;12.52;;;10.68;;
11422;SDS011;5768;51.476;7.210;2023-08-31T04:24:57;12.93;;;11.50;;
11422;SDS011;5768;51.476;7.210;2023-08-31T04:30:01;15.47;;;13.63;;
11422;SDS011;5768;51.476;7.210;2023-08-31T04:35:05;14.38;;;12.93;;
11422;SDS011;5768;51.476;7.210;2023-08-31T04:40:08;14.70;;;13.20;;
11422;SDS011;5768;51.476;7.210;2023-08-31T04:45:14;16.38;;;13.98;;
11422;SDS011;5768;51.476;7.210;2023-08-31T04:50:16;17.30;;;13.95;;
11422;SDS011;5768;51.476;7.210;2023-08-31T04:55:20;15.30;;;12.80;;
11422;SDS011;5768;51.476;7.210;2023-08-31T05:00:24;14.53;;;13.03;;
11422;SDS011;5768;51.476;7.210;2023-08-31T05:05:30;15.90;;;14.10;;
11422;SDS011;5768;51.476;7.210;2023-08-31T05:10:33;17.50;;;14.80;;
11422;SDS011;5768;51.476;7.210;2023-08-31T05:15:36;15.15;;;12.18;;
11422;SDS011;5768;51.476;7.210;2023-08-31T05:20:39;17.30;;;13.30;;
11422;SDS011;5768;51.476;7.210;2023-08-31T05:25:46;17.67;;;14.07;;
11422;SDS011;5768;51.476;7.210;2023-08-31T05:30:50;16.17;;;14.50;;
11422;SDS011;5768;51.476;7.210;2023-08-31T05:35:55;15.32;;;13.68;;
11422;SDS011;5768;51.476;7.210;2023-08-31T05:41:04;13.38;;;12.05;;
11422;SDS011;5768;51.476;7.210;2023-08-31T05:46:08;13.73;;;12.32;;
11422;SDS011;5768;51.476;7.210;2023-08-31T05:51:11;10.57;;;9.55;;
11422;SDS011;5768;51.476;7.210;2023-08-31T05:56:13;14.88;;;11.82;;
11422;SDS011;5768;51.476;7.210;2023-08-31T06:01:17;11.02;;;9.93;;
11422;SDS011;5768;51.476;7.210;2023-08-31T06:06:19;10.30;;;9.35;;
11422;SDS011;5768;51.476;7.210;2023-08-31T06:11:21;9.60;;;8.60;;
11422;SDS011;5768;51.476;7.210;2023-08-31T06:16:25;9.80;;;8.90;;
11422;SDS011;5768;51.476;7.210;2023-08-31T06:21:27;7.75;;;7.05;;
11422;SDS011;5768;51.476;7.210;2023-08-31T06:26:29;9.82;;;6.78;;
11422;SDS011;5768;51.476;7.210;2023-08-31T06:31:33;6.25;;;5.65;;
11422;SDS011;5768;51.476;7.210;2023-08-31T06:36:36;8.98;;;5.88;;
11422;SDS011;5768;51.476;7.210;2023-08-31T06:41:38;5.97;;;4.97;;
11422;SDS011;5768;51.476;7.210;2023-08-31T06:46:42;5.30;;;4.80;;
11422;SDS011;5768;51.476;7.210;2023-08-31T06:51:44;6.45;;;5.20;;
11422;SDS011;5768;51.476;7.210;2023-08-31T06:56:46;7.22;;;4.43;;
11422;SDS011;5768;51.476;7.210;2023-08-31T07:01:50;7.70;;;3.83;;
11422;SDS011;5768;51.476;7.210;2023-08-31T07:06:53;7.05;;;3.95;;
11422;SDS011;5768;51.476;7.210;2023-08-31T07:11:55;5.60;;;3.70;;
11422;SDS011;5768;51.476;7.210;2023-08-31T07:16:59;6.40;;;4.10;;
11422;SDS011;5768;51.476;7.210;2023-08-31T07:22:02;7.25;;;3.70;;
11422;SDS011;5768;51.476;7.210;2023-08-31T07:27:06;5.90;;;3.70;;
11422;SDS011;5768;51.476;7.210;2023-08-31T07:32:10;5.85;;;3.50;;
11422;SDS011;5768;51.476;7.210;2023-08-31T07:37:12;6.57;;;3.25;;
11422;SDS011;5768;51.476;7.210;2023-08-31T07:42:14;3.50;;;2.72;;
11422;SDS011;5768;51.476;7.210;2023-08-31T07:47:18;4.05;;;2.90;;
11422;SDS011;5768;51.476;7.210;2023-08-31T07:52:20;4.38;;;2.60;;
11422;SDS011;5768;51.476;7.210;2023-08-31T07:57:22;3.10;;;2.50;;
11422;SDS011;5768;51.476;7.210;2023-08-31T08:02:26;3.22;;;2.53;;
11422;SDS011;5768;51.476;7.210;2023-08-31T08:07:28;5.57;;;2.63;;
11422;SDS011;5768;51.476;7.210;2023-08-31T08:12:36;3.38;;;2.35;;
11422;SDS011;5768;51.476;7.210;2023-08-31T08:17:41;3.13;;;2.00;;
11422;SDS011;5768;51.476;7.210;2023-08-31T08:22:43;2.92;;;2.20;;
11422;SDS011;5768;51.476;7.210;2023-08-31T08:27:45;3.38;;;2.47;;
11422;SDS011;5768;51.476;7.210;2023-08-31T08:32:49;5.72;;;2.90;;
11422;SDS011;5768;51.476;7.210;2023-08-31T08:37:51;4.25;;;2.40;;
11422;SDS011;5768;51.476;7.210;2023-08-31T08:42:54;2.80;;;2.22;;
11422;SDS011;5768;51.476;7.210;2023-08-31T08:47:59;2.40;;;1.98;;
11422;SDS011;5768;51.476;7.210;2023-08-31T08:53:02;3.33;;;1.85;;
11422;SDS011;5768;51.476;7.210;2023-08-31T08:58:06;3.65;;;2.38;;
11422;SDS011;5768;51.476;7.210;2023-08-31T09:03:09;5.68;;;3.17;;
11422;SDS011;5768;51.476;7.210;2023-08-31T09:08:12;5.15;;;3.10;;
11422;SDS011;5768;51.476;7.210;2023-08-31T09:13:15;3.97;;;2.55;;
11422;SDS011;5768;51.476;7.210;2023-08-31T09:18:22;2.58;;;2.13;;
11422;SDS011;5768;51.476;7.210;2023-08-31T09:23:26;1.60;;;1.50;;
11422;SDS011;5768;51.476;7.210;2023-08-31T09:28:29;3.90;;;2.25;;
11422;SDS011;5768;51.476;7.210;2023-08-31T09:33:32;5.07;;;2.80;;
11422;SDS011;5768;51.476;7.210;2023-08-31T09:38:41;5.38;;;2.80;;
11422;SDS011;5768;51.476;7.210;2023-08-31T09:43:43;4.78;;;2.30;;
11422;SDS011;5768;51.476;7.210;2023-08-31T09:48:47;4.90;;;2.40;;
11422;SDS011;5768;51.476;7.210;2023-08-31T09:53:50;2.72;;;1.98;;
11422;SDS011;5768;51.476;7.210;2023-08-31T09:58:59;4.78;;;2.22;;
11422;SDS011;5768;51.476;7.210;2023-08-31T10:04:04;2.35;;;2.10;;
11422;SDS011;5768;51.476;7.210;2023-08-31T10:09:09;3.67;;;2.20;;
11422;SDS011;5768;51.476;7.210;2023-08-31T10:14:13;2.13;;;1.75;;
11422;SDS011;5768;51.476;7.210;2023-08-31T10:19:18;2.72;;;1.65;;
11422;SDS011;5768;51.476;7.210;2023-08-31T10:24:33;2.88;;;1.88;;
11422;SDS011;5768;51.476;7.210;2023-08-31T10:29:59;2.33;;;1.70;;
11422;SDS011;5768;51.476;7.210;2023-08-31T10:35:41;6.28;;;1.80;;
11422;SDS011;5768;51.476;7.210;2023-08-31T10:41:00;2.75;;;1.52;;
11422;SDS011;5768;51.476;7.210;2023-08-31T10:46:14;2.00;;;1.48;;
11422;SDS011;5768;51.476;7.210;2023-08-31T10:51:19;4.97;;;1.90;;
11422;SDS011;5768;51.476;7.210;2023-08-31T10:56:28;1.50;;;1.40;;
11422;SDS011;5768;51.476;7.210;2023-08-31T11:07:13;2.80;;;1.58;;
11422;SDS011;5768;51.476;7.210;2023-08-31T11:12:21;2.58;;;1.67;;
11422;SDS011;5768;51.476;7.210;2023-08-31T11:17:24;2.72;;;1.75;;
11422;SDS011;5768;51.476;7.210;2023-08-31T11:22:28;2.25;;;1.55;;
11422;SDS011;5768;51.476;7.210;2023-08-31T11:27:31;5.72;;;1.73;;
11422;SDS011;5768;51.476;7.210;2023-08-31T11:32:33;4.05;;;1.80;;
11422;SDS011;5768;51.476;7.210;2023-08-31T11:37:37;3.00;;;1.88;;
11422;SDS011;5768;51.476;7.210;2023-08-31T11:42:39;5.05;;;2.00;;
11422;SDS011;5768;51.476;7.210;2023-08-31T11:47:42;3.80;;;1.90;;
11422;SDS011;5768;51.476;7.210;2023-08-31T11:52:46;4.38;;;2.17;;
11422;SDS011;5768;51.476;7.210;2023-08-31T11:57:50;3.85;;;2.00;;
11422;SDS011;5768;51.476;7.210;2023-08-31T12:02:57;2.20;;;1.60;;
11422;SDS011;5768;51.476;7.210;2023-08-31T12:08:01;1.65;;;1.33;;
11422;SDS011;5768;51.476;7.210;2023-08-31T12:13:09;1.85;;;1.25;;
11422;SDS011;5768;51.476;7.210;2023-08-31T12:18:13;3.17;;;1.83;;
11422;SDS011;5768;51.476;7.210;2023-08-31T12:23:17;2.80;;;1.73;;
11422;SDS011;5768;51.476;7.210;2023-08-31T12:28:22;2.10;;;1.60;;
11422;SDS011;5768;51.476;7.210;2023-08-31T12:33:25;7.32;;;2.08;;
11422;SDS011;5768;51.476;7.210;2023-08-31T12:38:30;3.20;;;1.85;;
11422;SDS011;5768;51.476;7.210;2023-08-31T12:43:33;4.32;;;1.75;;
11422;SDS011;5768;51.476;7.210;2023-08-31T12:48:36;3.47;;;1.50;;
11422;SDS011;5768;51.476;7.210;2023-08-31T12:53:39;3.25;;;1.60;;
11422;SDS011;5768;51.476;7.210;2023-08-31T12:58:42;3.20;;;1.92;;
11422;SDS011;5768;51.476;7.210;2023-08-31T13:03:44;4.78;;;1.92;;
11422;SDS011;5768;51.476;7.210;2023-08-31T13:08:48;4.57;;;1.60;;
11422;SDS011;5768;51.476;7.210;2023-08-31T13:13:51;4.93;;;2.42;;
11422;SDS011;5768;51.476;7.210;2023-08-31T13:18:53;8.00;;;2.42;;
11422;SDS011;5768;51.476;7.210;2023-08-31T13:23:56;2.70;;;1.80;;
11422;SDS011;5768;51.476;7.210;2023-08-31T13:29:00;3.53;;;2.00;;
11422;SDS011;5768;51.476;7.210;2023-08-31T13:34:04;4.40;;;1.83;;
11422;SDS011;5768;51.476;7.210;2023-08-31T13:39:09;3.47;;;2.22;;
11422;SDS011;5768;51.476;7.210;2023-08-31T13:44:11;4.20;;;2.28;;
11422;SDS011;5768;51.476;7.210;2023-08-31T13:49:13;4.07;;;2.30;;
11422;SDS011;5768;51.476;7.210;2023-08-31T13:54:17;3.13;;;1.92;;
11422;SDS011;5768;51.476;7.210;2023-08-31T13:59:19;3.58;;;2.28;;
11422;SDS011;5768;51.476;7.210;2023-08-31T14:04:21;3.88;;;1.95;;
11422;SDS011;5768;51.476;7.210;2023-08-31T14:09:25;4.30;;;1.70;;
11422;SDS011;5768;51.476;7.210;2023-08-31T14:14:28;5.60;;;2.47;;
11422;SDS011;5768;51.476;7.210;2023-08-31T14:19:31;3.90;;;2.35;;
11422;SDS011;5768;51.476;7.210;2023-08-31T14:24:37;3.10;;;2.00;;
11422;SDS011;5768;51.476;7.210;2023-08-31T14:29:39;4.63;;;2.47;;
11422;SDS011;5768;51.476;7.210;2023-08-31T14:34:42;1.98;;;1.75;;
11422;SDS011;5768;51.476;7.210;2023-08-31T14:39:45;4.82;;;2.92;;
11422;SDS011;5768;51.476;7.210;2023-08-31T14:44:47;6.53;;;3.85;;
11422;SDS011;5768;51.476;7.210;2023-08-31T14:49:50;8.30;;;3.88;;
11422;SDS011;5768;51.476;7.210;2023-08-31T14:54:53;6.30;;;4.80;;
11422;SDS011;5768;51.476;7.210;2023-08-31T14:59:55;8.27;;;5.95;;
11422;SDS011;5768;51.476;7.210;2023-08-31T15:04:58;7.32;;;6.63;;
11422;SDS011;5768;51.476;7.210;2023-08-31T15:10:02;6.70;;;5.90;;
11422;SDS011;5768;51.476;7.210;2023-08-31T15:15:06;7.03;;;5.75;;
11422;SDS011;5768;51.476;7.210;2023-08-31T15:20:09;7.35;;;5.68;;
11422;SDS011;5768;51.476;7.210;2023-08-31T15:25:13;8.13;;;5.43;;
11422;SDS011;5768;51.476;7.210;2023-08-31T15:30:16;6.60;;;5.47;;
11422;SDS011;5768;51.476;7.210;2023-08-31T15:35:19;6.97;;;5.60;;
11422;SDS011;5768;51.476;7.210;2023-08-31T15:40:23;5.70;;;4.43;;
11422;SDS011;5768;51.476;7.210;2023-08-31T15:45:26;5.95;;;4.82;;
11422;SDS011;5768;51.476;7.210;2023-08-31T15:50:28;8.88;;;6.82;;
11422;SDS011;5768;51.476;7.210;2023-08-31T15:55:32;6.68;;;5.47;;
11422;SDS011;5768;51.476;7.210;2023-08-31T16:00:34;7.10;;;5.53;;
11422;SDS011;5768;51.476;7.210;2023-08-31T16:05:37;5.75;;;5.13;;
11422;SDS011;5768;51.476;7.210;2023-08-31T16:10:41;6.88;;;6.05;;
11422;SDS011;5768;51.476;7.210;2023-08-31T16:15:44;9.02;;;6.43;;
11422;SDS011;5768;51.476;7.210;2023-08-31T16:20:49;6.95;;;5.20;;
11422;SDS011;5768;51.476;7.210;2023-08-31T16:25:53;5.65;;;5.05;;
11422;SDS011;5768;51.476;7.210;2023-08-31T16:30:56;5.07;;;4.57;;
11422;SDS011;5768;51.476;7.210;2023-08-31T16:35:59;6.03;;;5.00;;
11422;SDS011;5768;51.476;7.210;2023-08-31T16:41:05;5.43;;;4.65;;
11422;SDS011;5768;51.476;7.210;2023-08-31T16:46:08;6.57;;;5.57;;
11422;SDS011;5768;51.476;7.210;2023-08-31T16:51:10;7.15;;;5.85;;
11422;SDS011;5768;51.476;7.210;2023-08-31T16:56:14;6.85;;;4.70;;
11422;SDS011;5768;51.476;7.210;2023-08-31T17:01:16;6.65;;;6.05;;
11422;SDS011;5768;51.476;7.210;2023-08-31T17:06:18;6.30;;;5.55;;
11422;SDS011;5768;51.476;7.210;2023-08-31T17:11:22;6.60;;;5.25;;
11422;SDS011;5768;51.476;7.210;2023-08-31T17:16:24;7.10;;;5.40;;
11422;SDS011;5768;51.476;7.210;2023-08-31T17:21:26;7.18;;;5.70;;
11422;SDS011;5768;51.476;7.210;2023-08-31T17:26:30;7.10;;;5.70;;
11422;SDS011;5768;51.476;7.210;2023-08-31T17:31:32;5.47;;;4.97;;
11422;SDS011;5768;51.476;7.210;2023-08-31T17:36:34;5.60;;;5.10;;
11422;SDS011;5768;51.476;7.210;2023-08-31T17:41:38;6.38;;;5.00;;
11422;SDS011;5768;51.476;7.210;2023-08-31T17:46:41;7.55;;;5.28;;
11422;SDS011;5768;51.476;7.210;2023-08-31T17:51:43;6.72;;;5.13;;
11422;SDS011;5768;51.476;7.210;2023-08-31T17:56:47;7.20;;;5.57;;
11422;SDS011;5768;51.476;7.210;2023-08-31T18:01:49;6.15;;;5.57;;
11422;SDS011;5768;51.476;7.210;2023-08-31T18:06:52;6.68;;;5.95;;
11422;SDS011;5768;51.476;7.210;2023-08-31T18:11:55;9.80;;;5.85;;
11422;SDS011;5768;51.476;7.210;2023-08-31T18:16:58;7.93;;;7.00;;
11422;SDS011;5768;51.476;7.210;2023-08-31T18:22:00;7.45;;;6.22;;
11422;SDS011;5768;51.476;7.210;2023-08-31T18:27:05;8.25;;;6.85;;
11422;SDS011;5768;51.476;7.210;2023-08-31T18:32:10;7.07;;;6.30;;
11422;SDS011;5768;51.476;7.210;2023-08-31T18:37:12;7.10;;;6.05;;
11422;SDS011;5768;51.476;7.210;2023-08-31T18:42:16;8.13;;;5.57;;
11422;SDS011;5768;51.476;7.210;2023-08-31T18:47:18;8.15;;;6.15;;
11422;SDS011;5768;51.476;7.210;2023-08-31T18:52:21;7.05;;;6.28;;
11422;SDS011;5768;51.476;7.210;2023-08-31T18:57:24;7.70;;;6.10;;
11422;SDS011;5768;51.476;7.210;2023-08-31T19:02:26;7.70;;;6.15;;
11422;SDS011;5768;51.476;7.210;2023-08-31T19:07:29;9.63;;;6.93;;
11422;SDS011;5768;51.476;7.210;2023-08-31T19:12:33;7.28;;;6.55;;
11422;SDS011;5768;51.476;7.210;2023-08-31T19:17:36;10.85;;;7.53;;
11422;SDS011;5768;51.476;7.210;2023-08-31T19:22:38;9.25;;;7.82;;
11422;SDS011;5768;51.476;7.210;2023-08-31T19:27:41;10.32;;;7.70;;
11422;SDS011;5768;51.476;7.210;2023-08-31T19:32:43;9.75;;;7.95;;
11422;SDS011;5768;51.476;7.210;2023-08-31T19:37:46;9.13;;;7.80;;
11422;SDS011;5768;51.476;7.210;2023-08-31T19:42:51;9.27;;;8.27;;
11422;SDS011;5768;51.476;7.210;2023-08-31T19:47:53;10.43;;;9.35;;
11422;SDS011;5768;51.476;7.210;2023-08-31T19:52:57;10.40;;;8.43;;
11422;SDS011;5768;51.476;7.210;2023-08-31T19:58:01;9.68;;;8.73;;
11422;SDS011;5768;51.476;7.210;2023-08-31T20:03:03;9.95;;;8.95;;
11422;SDS011;5768;51.476;7.210;2023-08-31T20:08:06;14.98;;;10.52;;
11422;SDS011;5768;51.476;7.210;2023-08-31T20:13:10;11.38;;;9.73;;
11422;SDS011;5768;51.476;7.210;2023-08-31T20:18:12;10.68;;;9.68;;
11422;SDS011;5768;51.476;7.210;2023-08-31T20:23:15;11.52;;;9.60;;
11422;SDS011;5768;51.476;7.210;2023-08-31T20:28:20;13.77;;;12.38;;
11422;SDS011;5768;51.476;7.210;2023-08-31T20:33:22;11.20;;;9.05;;
11422;SDS011;5768;51.476;7.210;2023-08-31T20:38:24;11.35;;;9.50;;
11422;SDS011;5768;51.476;7.210;2023-08-31T20:43:28;10.40;;;9.30;;
11422;SDS011;5768;51.476;7.210;2023-08-31T20:48:30;12.20;;;9.73;;
11422;SDS011;5768;51.476;7.210;2023-08-31T20:53:33;12.10;;;9.30;;
11422;SDS011;5768;51.476;7.210;2023-08-31T20:58:37;12.73;;;9.75;;
11422;SDS011;5768;51.476;7.210;2023-08-31T21:03:41;14.07;;;9.55;;
11422;SDS011;5768;51.476;7.210;2023-08-31T21:08:45;10.75;;;9.07;;
11422;SDS011;5768;51.476;7.210;2023-08-31T21:13:49;12.70;;;9.38;;
11422;SDS011;5768;51.476;7.210;2023-08-31T21:18:52;12.25;;;9.48;;
11422;SDS011;5768;51.476;7.210;2023-08-31T21:23:57;13.43;;;9.55;;
11422;SDS011;5768;51.476;7.210;2023-08-31T21:29:00;10.93;;;9.30;;
11422;SDS011;5768;51.476;7.210;2023-08-31T21:34:03;12.02;;;9.20;;
11422;SDS011;5768;51.476;7.210;2023-08-31T21:39:05;12.10;;;9.77;;
11422;SDS011;5768;51.476;7.210;2023-08-31T21:44:08;11.98;;;9.00;;
11422;SDS011;5768;51.476;7.210;2023-08-31T21:49:10;10.68;;;8.43;;
11422;SDS011;5768;51.476;7.210;2023-08-31T21:54:13;12.50;;;8.70;;
11422;SDS011;5768;51.476;7.210;2023-08-31T21:59:17;11.65;;;8.52;;
11422;SDS011;5768;51.476;7.210;2023-08-31T22:04:19;11.40;;;9.02;;
11422;SDS011;5768;51.476;7.210;2023-08-31T22:09:21;12.93;;;8.80;;
11422;SDS011;5768;51.476;7.210;2023-08-31T22:14:25;10.73;;;8.07;;
11422;SDS011;5768;51.476;7.210;2023-08-31T22:19:28;12.45;;;7.95;;
11422;SDS011;5768;51.476;7.210;2023-08-31T22:24:30;11.13;;;8.70;;
11422;SDS011;5768;51.476;7.210;2023-08-31T22:29:34;10.95;;;7.65;;
11422;SDS011;5768;51.476;7.210;2023-08-31T22:34:37;13.07;;;7.97;;
11422;SDS011;5768;51.476;7.210;2023-08-31T22:39:39;12.20;;;7.95;;
11422;SDS011;5768;51.476;7.210;2023-08-31T22:44:43;11.75;;;8.07;;
11422;SDS011;5768;51.476;7.210;2023-08-31T22:49:46;11.95;;;8.10;;
11422;SDS011;5768;51.476;7.210;2023-08-31T22:54:51;16.13;;;9.23;;
11422;SDS011;5768;51.476;7.210;2023-08-31T22:59:55;12.38;;;8.80;;
11422;SDS011;5768;51.476;7.210;2023-08-31T23:04:58;11.43;;;8.52;;
11422;SDS011;5768;51.476;7.210;2023-08-31T23:10:00;14.75;;;8.98;;
11422;SDS011;5768;51.476;7.210;2023-08-31T23:15:04;13.98;;;9.18;;
11422;SDS011;5768;51.476;7.210;2023-08-31T23:20:08;12.43;;;8.70;;
11422;SDS011;5768;51.476;7.210;2023-08-31T23:25:11;11.07;;;9.07;;
11422;SDS011;5768;51.476;7.210;2023-08-31T23:30:15;15.82;;;9.43;;
11422;SDS011;5768;51.476;7.210;2023-08-31T23:35:18;11.40;;;8.40;;
11422;SDS011;5768;51.476;7.210;2023-08-31T23:40:20;13.95;;;8.57;;
11422;SDS011;5768;51.476;7.210;2023-08-31T23:45:24;15.93;;;8.43;;
11422;SDS011;5768;51.476;7.210;2023-08-31T23:50:26;12.50;;;8.32;;
11422;SDS011;5768;51.476;7.210;2023-08-31T23:55:29;15.23;;;8.77;;
